createdAt,value
2022-11-07T00:01:49.236Z,7.40
2022-11-07T00:04:16.706Z,7.30
2022-11-07T00:06:43.757Z,7.40
2022-11-07T00:09:10.799Z,7.40
2022-11-07T00:11:37.777Z,7.40
2022-11-07T00:14:04.912Z,7.40
2022-11-07T00:16:32.851Z,7.40
2022-11-07T00:18:59.834Z,7.30
2022-11-07T00:21:26.787Z,7.30
2022-11-07T00:23:53.703Z,7.30
2022-11-07T00:26:20.861Z,7.40
2022-11-07T00:28:47.872Z,7.40
2022-11-07T00:31:16.347Z,7.40
2022-11-07T00:33:44.255Z,7.40
2022-11-07T00:36:27.896Z,7.40
2022-11-07T00:38:55.693Z,7.40
2022-11-07T00:41:23.261Z,7.40
2022-11-07T00:43:51.405Z,7.30
2022-11-07T00:46:19.666Z,7.30
2022-11-07T00:48:47.663Z,7.30
2022-11-07T00:51:19.260Z,7.30
2022-11-07T00:53:47.485Z,7.20
2022-11-07T00:56:17.835Z,7.20
2022-11-07T00:58:45.230Z,7.20
2022-11-07T01:01:22.662Z,7.20
2022-11-07T01:04:09.138Z,7.20
2022-11-07T01:06:39.816Z,7.20
2022-11-07T01:09:09.865Z,7.20
2022-11-07T01:11:39.438Z,7.20
2022-11-07T01:14:08.227Z,7.20
2022-11-07T01:16:35.559Z,7.10
2022-11-07T01:19:04.265Z,7.10
2022-11-07T01:21:31.665Z,7.10
2022-11-07T01:24:00.187Z,7.00
2022-11-07T01:26:27.591Z,7.00
2022-11-07T01:28:54.621Z,7.00
2022-11-07T01:31:23.180Z,6.90
2022-11-07T01:33:50.127Z,7.00
2022-11-07T01:36:18.725Z,7.00
2022-11-07T01:38:51.232Z,7.00
2022-11-07T01:41:28.336Z,6.90
2022-11-07T01:44:07.237Z,6.90
2022-11-07T01:46:40.651Z,6.90
2022-11-07T01:49:17.567Z,6.90
2022-11-07T01:52:31.029Z,6.80
2022-11-07T01:55:21.336Z,6.80
2022-11-07T01:57:55.016Z,6.70
2022-11-07T02:00:24.747Z,6.60
2022-11-07T02:03:03.250Z,6.60
2022-11-07T02:05:39.645Z,6.60
2022-11-07T02:08:09.788Z,6.60
2022-11-07T02:10:40.703Z,6.60
2022-11-07T02:13:08.956Z,6.50
2022-11-07T02:15:37.061Z,6.50
2022-11-07T02:18:04.523Z,6.50
2022-11-07T02:20:31.611Z,6.60
2022-11-07T02:23:10.320Z,6.60
2022-11-07T02:25:38.101Z,6.60
2022-11-07T02:28:10.256Z,6.60
2022-11-07T02:30:38.931Z,6.50
2022-11-07T02:33:19.064Z,6.60
2022-11-07T02:35:50.067Z,6.60
2022-11-07T02:38:32.699Z,6.60
2022-11-07T02:41:09.331Z,6.60
2022-11-07T02:43:42.701Z,6.60
2022-11-07T02:46:12.159Z,6.60
2022-11-07T02:48:47.519Z,6.60
2022-11-07T02:51:14.522Z,6.60
2022-11-07T02:53:44.112Z,6.60
2022-11-07T02:56:11.403Z,6.60
2022-11-07T02:58:38.906Z,6.60
2022-11-07T03:01:10.026Z,6.50
2022-11-07T03:03:49.045Z,6.50
2022-11-07T03:06:23.740Z,6.60
2022-11-07T03:08:51.551Z,6.60
2022-11-07T03:11:20.263Z,6.60
2022-11-07T03:13:50.970Z,6.50
2022-11-07T03:16:20.050Z,6.60
2022-11-07T03:30:13.472Z,6.60
2022-11-07T03:32:40.474Z,7.40
2022-11-07T03:35:08.136Z,7.10
2022-11-07T03:37:35.229Z,7.00
2022-11-07T03:40:02.236Z,6.80
2022-11-07T03:42:29.147Z,6.80
2022-11-07T03:44:56.079Z,6.90
2022-11-07T03:47:23.013Z,6.70
2022-11-07T03:49:52.693Z,6.70
2022-11-07T03:52:19.643Z,6.70
2022-11-07T03:54:46.851Z,6.70
2022-11-07T03:57:13.771Z,6.70
2022-11-07T03:59:40.716Z,6.70
2022-11-07T04:02:07.713Z,6.70
2022-11-07T04:04:34.764Z,6.70
2022-11-07T04:07:01.751Z,6.70
2022-11-07T04:09:29.514Z,6.70
2022-11-07T04:12:15.143Z,6.70
2022-11-07T04:15:01.046Z,6.70
2022-11-07T04:17:29.639Z,6.70
2022-11-07T04:19:57.415Z,6.70
2022-11-07T04:22:26.342Z,6.60
2022-11-07T04:24:53.711Z,6.70
2022-11-07T04:27:39.971Z,6.70
2022-11-07T04:30:19.201Z,6.70
2022-11-07T04:33:01.804Z,6.80
2022-11-07T04:35:33.325Z,6.80
2022-11-07T04:38:01.803Z,6.80
2022-11-07T04:40:29.770Z,6.80
2022-11-07T04:42:57.197Z,6.80
2022-11-07T04:45:24.361Z,6.70
2022-11-07T04:47:51.557Z,6.70
2022-11-07T04:50:20.231Z,6.70
2022-11-07T04:52:48.267Z,6.60
2022-11-07T04:55:25.911Z,6.60
2022-11-07T04:57:53.529Z,6.60
2022-11-07T05:00:21.261Z,6.50
2022-11-07T05:02:49.170Z,6.60
2022-11-07T05:05:18.571Z,6.60
2022-11-07T05:07:46.667Z,6.50
2022-11-07T05:10:25.492Z,6.50
2022-11-07T05:12:53.626Z,6.50
2022-11-07T05:15:21.075Z,6.50
2022-11-07T05:17:48.309Z,6.40
2022-11-07T05:20:38.589Z,6.40
2022-11-07T05:23:12.695Z,6.50
2022-11-07T05:25:50.529Z,6.50
2022-11-07T05:28:38.364Z,6.50
2022-11-07T05:31:08.494Z,6.60
2022-11-07T05:33:36.173Z,6.70
2022-11-07T05:36:19.365Z,6.70
2022-11-07T05:38:49.845Z,6.70
2022-11-07T05:41:19.103Z,6.70
2022-11-07T05:43:47.131Z,6.80
2022-11-07T05:46:16.575Z,6.80
2022-11-07T05:48:44.428Z,6.90
2022-11-07T05:51:11.495Z,6.90
2022-11-07T05:53:38.858Z,6.90
2022-11-07T05:56:06.297Z,6.90
2022-11-07T05:58:33.340Z,7.00
2022-11-07T06:01:06.103Z,7.00
2022-11-07T06:03:33.853Z,7.00
2022-11-07T06:06:00.821Z,7.00
2022-11-07T06:08:27.836Z,7.00
2022-11-07T06:10:54.843Z,7.00
2022-11-07T06:13:22.221Z,7.00
2022-11-07T06:15:49.422Z,7.00
2022-11-07T06:18:20.748Z,7.00
2022-11-07T06:20:47.710Z,7.00
2022-11-07T06:23:15.433Z,7.00
2022-11-07T06:25:42.747Z,7.00
2022-11-07T06:28:12.179Z,7.10
2022-11-07T06:30:42.817Z,7.10
2022-11-07T06:33:16.632Z,7.10
2022-11-07T06:35:45.646Z,7.10
2022-11-07T06:38:15.520Z,7.20
2022-11-07T06:40:46.165Z,7.20
2022-11-07T06:43:20.830Z,7.20
2022-11-07T06:45:48.299Z,7.20
2022-11-07T06:48:15.397Z,7.20
2022-11-07T06:50:42.331Z,7.20
2022-11-07T06:53:13.594Z,7.10
2022-11-07T06:55:41.249Z,7.10
2022-11-07T06:58:08.521Z,7.20
2022-11-07T07:00:37.368Z,7.10
2022-11-07T07:03:05.259Z,7.10
2022-11-07T07:05:34.215Z,7.10
2022-11-07T07:08:01.820Z,7.10
2022-11-07T07:10:28.922Z,7.10
2022-11-07T07:12:59.371Z,7.10
2022-11-07T07:15:26.652Z,7.10
2022-11-07T07:17:53.602Z,7.20
2022-11-07T07:20:20.535Z,7.10
2022-11-07T07:22:53.273Z,7.10
2022-11-07T07:25:22.508Z,7.10
2022-11-07T07:27:49.623Z,7.10
2022-11-07T07:30:17.099Z,7.10
2022-11-07T07:32:44.064Z,7.10
2022-11-07T07:35:11.348Z,7.10
2022-11-07T07:37:38.325Z,7.00
2022-11-07T07:40:05.928Z,7.00
2022-11-07T07:42:32.941Z,7.10
2022-11-07T07:44:59.901Z,7.20
2022-11-07T07:47:27.259Z,7.20
2022-11-07T07:49:54.365Z,7.20
2022-11-07T07:52:21.298Z,7.20
2022-11-07T07:54:48.582Z,7.30
2022-11-07T07:57:15.519Z,7.40
2022-11-07T07:59:42.471Z,7.40
2022-11-07T08:02:13.252Z,7.50
2022-11-07T08:04:43.809Z,7.40
2022-11-07T08:07:11.053Z,7.50
2022-11-07T08:09:38.109Z,7.50
2022-11-07T08:12:08.780Z,7.50
2022-11-07T08:14:35.795Z,7.50
2022-11-07T08:17:03.652Z,7.50
2022-11-07T08:19:30.658Z,7.50
2022-11-07T08:21:57.601Z,7.60
2022-11-07T08:24:24.558Z,7.60
2022-11-07T08:26:51.480Z,7.60
2022-11-07T08:29:18.554Z,7.60
2022-11-07T08:31:45.594Z,7.60
2022-11-07T08:34:13.088Z,7.50
2022-11-07T08:36:40.023Z,7.50
2022-11-07T08:39:06.931Z,7.60
2022-11-07T08:41:35.952Z,7.60
2022-11-07T08:44:02.937Z,7.60
2022-11-07T08:46:29.850Z,7.60
2022-11-07T08:48:56.747Z,7.60
2022-11-07T08:51:23.655Z,7.70
2022-11-07T08:53:50.597Z,7.70
2022-11-07T08:56:17.531Z,7.80
2022-11-07T08:58:44.657Z,7.80
2022-11-07T09:01:11.755Z,7.80
2022-11-07T09:03:51.771Z,7.90
2022-11-07T09:06:23.870Z,7.90
2022-11-07T09:08:50.850Z,7.90
2022-11-07T09:11:20.641Z,7.90
2022-11-07T09:13:48.108Z,7.80
2022-11-07T09:16:18.256Z,7.80
2022-11-07T09:18:51.967Z,7.80
2022-11-07T09:21:22.678Z,7.80
2022-11-07T09:23:51.710Z,7.80
2022-11-07T09:26:18.807Z,7.90
2022-11-07T09:28:51.070Z,7.90
2022-11-07T09:31:20.318Z,7.90
2022-11-07T09:33:47.248Z,7.90
2022-11-07T09:36:14.994Z,8.00
2022-11-07T09:38:41.958Z,8.20
2022-11-07T09:41:36.100Z,8.20
2022-11-07T09:44:41.054Z,8.20
2022-11-07T09:47:23.600Z,8.20
2022-11-07T09:49:55.587Z,8.20
2022-11-07T09:52:35.831Z,8.30
2022-11-07T09:55:35.739Z,8.40
2022-11-07T09:58:33.788Z,8.50
2022-11-07T10:01:11.093Z,8.60
2022-11-07T10:03:43.186Z,8.50
2022-11-07T10:06:38.920Z,8.60
2022-11-07T10:09:33.276Z,8.80
2022-11-07T10:12:44.736Z,8.90
2022-11-07T10:16:12.486Z,8.90
2022-11-07T10:19:07.796Z,8.90
2022-11-07T10:22:23.682Z,9.00
2022-11-07T10:25:19.146Z,9.00
2022-11-07T10:28:07.667Z,8.90
2022-11-07T10:30:35.861Z,9.00
2022-11-07T10:33:12.124Z,9.00
2022-11-07T10:35:45.900Z,9.20
2022-11-07T10:38:35.392Z,9.20
2022-11-07T10:41:02.788Z,9.20
2022-11-07T10:43:39.859Z,9.20
2022-11-07T10:46:24.606Z,9.30
2022-11-07T10:49:03.394Z,9.30
2022-11-07T10:51:42.663Z,9.40
2022-11-07T10:54:30.198Z,9.50
2022-11-07T10:57:23.461Z,9.70
2022-11-07T10:59:53.077Z,9.70
2022-11-07T11:02:24.292Z,9.70
2022-11-07T11:05:00.415Z,9.80
2022-11-07T11:07:38.103Z,9.70
2022-11-07T11:10:28.495Z,9.70
2022-11-07T11:12:56.286Z,9.70
2022-11-07T11:15:34.299Z,9.80
2022-11-07T11:18:14.148Z,10.00
2022-11-07T11:20:53.692Z,10.00
2022-11-07T11:23:27.112Z,10.10
2022-11-07T11:26:30.376Z,10.10
2022-11-07T11:29:09.442Z,10.10
2022-11-07T11:31:45.282Z,10.20
2022-11-07T11:34:24.478Z,10.20
2022-11-07T11:37:24.215Z,10.30
2022-11-07T11:40:02.417Z,10.40
2022-11-07T11:43:18.899Z,10.40
2022-11-07T11:46:05.564Z,10.50
2022-11-07T11:48:47.842Z,10.50
2022-11-07T11:51:42.631Z,10.60
2022-11-07T11:54:14.225Z,10.50
2022-11-07T11:57:11.892Z,10.50
2022-11-07T11:59:57.715Z,10.50
2022-11-07T12:02:39.135Z,10.50
2022-11-07T12:05:20.873Z,10.50
2022-11-07T12:08:09.632Z,10.60
2022-11-07T12:11:16.386Z,10.60
2022-11-07T12:14:04.958Z,10.70
2022-11-07T12:16:57.420Z,10.70
2022-11-07T12:19:56.134Z,10.70
2022-11-07T12:22:57.471Z,10.80
2022-11-07T12:25:41.780Z,10.80
2022-11-07T12:28:40.627Z,10.90
2022-11-07T12:31:25.628Z,10.90
2022-11-07T12:34:52.859Z,10.80
2022-11-07T12:37:48.303Z,10.80
2022-11-07T12:40:31.415Z,10.90
2022-11-07T12:43:20.066Z,10.90
2022-11-07T12:46:07.755Z,10.90
2022-11-07T12:48:56.464Z,10.90
2022-11-07T12:51:46.145Z,10.80
2022-11-07T12:54:42.360Z,10.90
2022-11-07T12:57:45.616Z,10.90
2022-11-07T13:00:29.693Z,10.80
2022-11-07T13:03:44.823Z,10.80
2022-11-07T13:06:32.716Z,10.80
2022-11-07T13:09:11.148Z,10.70
2022-11-07T13:11:56.526Z,10.70
2022-11-07T13:14:26.088Z,10.70
2022-11-07T13:17:02.002Z,10.80
2022-11-07T13:19:37.643Z,10.90
2022-11-07T13:22:08.536Z,10.90
2022-11-07T13:24:50.193Z,10.90
2022-11-07T13:27:36.052Z,11.00
2022-11-07T13:30:15.125Z,11.00
2022-11-07T13:32:48.478Z,11.00
2022-11-07T13:35:31.917Z,11.10
2022-11-07T13:38:13.515Z,11.00
2022-11-07T13:40:50.655Z,11.00
2022-11-07T13:43:55.584Z,10.90
2022-11-07T13:46:48.980Z,10.90
2022-11-07T13:49:30.185Z,10.90
2022-11-07T13:52:10.192Z,10.80
2022-11-07T13:54:53.858Z,10.80
2022-11-07T13:57:40.734Z,10.70
2022-11-07T14:00:16.985Z,10.70
2022-11-07T14:02:55.306Z,10.70
2022-11-07T14:05:27.035Z,10.70
2022-11-07T14:08:11.786Z,10.70
2022-11-07T14:10:47.801Z,10.70
2022-11-07T14:13:27.569Z,10.80
2022-11-07T14:16:02.880Z,10.80
2022-11-07T14:18:37.365Z,10.80
2022-11-07T14:21:04.466Z,10.80
2022-11-07T14:23:33.118Z,10.90
2022-11-07T14:26:17.730Z,10.80
2022-11-07T14:28:44.832Z,10.80
2022-11-07T14:42:36.321Z,10.80
2022-11-07T14:45:06.590Z,11.30
2022-11-07T14:47:35.909Z,11.20
2022-11-07T14:50:05.868Z,11.00
2022-11-07T14:53:03.613Z,10.90
2022-11-07T14:55:37.556Z,10.80
2022-11-07T14:58:07.417Z,10.70
2022-11-07T15:00:35.884Z,10.60
2022-11-07T15:03:05.790Z,10.60
2022-11-07T15:05:39.275Z,10.50
2022-11-07T15:08:07.517Z,10.50
2022-11-07T15:10:40.104Z,10.60
2022-11-07T15:13:26.808Z,10.60
2022-11-07T15:16:07.590Z,10.60
2022-11-07T15:18:45.370Z,10.60
2022-11-07T15:21:30.131Z,10.50
2022-11-07T15:24:00.829Z,10.50
2022-11-07T15:26:35.928Z,10.50
2022-11-07T15:29:23.419Z,10.40
2022-11-07T15:31:54.523Z,10.50
2022-11-07T15:37:28.338Z,10.40
2022-11-07T15:39:57.187Z,10.30
2022-11-07T15:42:25.378Z,10.30
2022-11-07T15:44:53.094Z,10.30
2022-11-07T15:47:23.116Z,10.30
2022-11-07T15:49:51.502Z,10.30
2022-11-07T15:52:19.527Z,10.30
2022-11-07T15:54:47.293Z,10.30
2022-11-07T15:57:14.857Z,10.30
2022-11-07T15:59:44.152Z,10.20
2022-11-07T16:02:18.055Z,10.20
2022-11-07T16:04:45.756Z,10.30
2022-11-07T16:07:20.457Z,10.30
2022-11-07T16:09:49.083Z,10.20
2022-11-07T16:12:20.184Z,10.20
2022-11-07T16:14:48.525Z,10.10
2022-11-07T16:17:19.017Z,10.00
2022-11-07T16:19:47.125Z,10.00
2022-11-07T16:22:16.529Z,9.90
2022-11-07T16:24:45.312Z,10.00
2022-11-07T16:27:20.096Z,9.90
2022-11-07T16:29:48.551Z,9.90
2022-11-07T16:32:18.847Z,9.90
2022-11-07T16:34:47.606Z,9.90
2022-11-07T16:37:15.181Z,9.90
2022-11-07T16:39:43.958Z,9.90
2022-11-07T16:42:16.486Z,9.90
2022-11-07T16:44:45.640Z,9.90
2022-11-07T16:47:17.737Z,9.90
2022-11-07T16:49:46.315Z,9.80
2022-11-07T16:52:16.895Z,9.80
2022-11-07T16:54:47.239Z,9.80
2022-11-07T16:57:19.626Z,9.70
2022-11-07T16:59:47.823Z,9.70
2022-11-07T17:02:27.359Z,9.70
2022-11-07T17:04:55.830Z,9.70
2022-11-07T17:07:25.157Z,9.70
2022-11-07T17:09:54.144Z,9.70
2022-11-07T17:12:24.933Z,9.70
2022-11-07T17:14:54.765Z,9.80
2022-11-07T17:17:25.096Z,9.80
2022-11-07T17:19:53.046Z,9.80
2022-11-07T17:22:21.745Z,9.80
2022-11-07T17:24:50.057Z,9.80
2022-11-07T17:27:44.187Z,9.80
2022-11-07T17:30:19.495Z,9.80
2022-11-07T17:32:47.167Z,9.90
2022-11-07T17:38:04.622Z,9.80
2022-11-07T17:40:35.369Z,9.90
2022-11-07T17:43:04.308Z,9.90
2022-11-07T17:45:33.987Z,9.80
2022-11-07T17:48:02.981Z,9.90
2022-11-07T17:50:31.912Z,10.00
2022-11-07T17:53:00.900Z,9.90
2022-11-07T17:55:30.091Z,9.90
2022-11-07T17:57:58.616Z,9.90
2022-11-07T18:00:28.351Z,10.00
2022-11-07T18:02:58.130Z,10.00
2022-11-07T18:05:33.035Z,10.10
2022-11-07T18:08:02.109Z,10.10
2022-11-07T18:10:30.060Z,10.20
2022-11-07T18:12:58.369Z,10.20
2022-11-07T18:15:27.544Z,10.10
2022-11-07T18:17:55.410Z,10.20
2022-11-07T18:20:23.337Z,10.30
2022-11-07T18:22:51.985Z,10.20
2022-11-07T18:25:20.559Z,10.30
2022-11-07T18:27:49.771Z,10.30
2022-11-07T18:30:17.803Z,10.30
2022-11-07T18:32:46.058Z,10.40
2022-11-07T18:35:14.864Z,10.40
2022-11-07T18:37:42.617Z,10.40
2022-11-07T18:40:12.978Z,10.40
2022-11-07T18:42:45.852Z,10.40
2022-11-07T18:45:14.849Z,10.50
2022-11-07T18:47:46.795Z,10.50
2022-11-07T18:50:15.413Z,10.50
2022-11-07T18:52:44.171Z,10.60
2022-11-07T18:55:12.129Z,10.60
2022-11-07T18:57:40.795Z,10.60
2022-11-07T19:13:44.551Z,10.70
2022-11-07T19:16:15.741Z,11.20
2022-11-07T19:18:49.081Z,11.10
2022-11-07T19:21:20.397Z,11.00
2022-11-07T19:23:49.966Z,10.90
2022-11-07T19:26:19.199Z,10.90
2022-11-07T19:28:47.325Z,10.80
2022-11-07T19:31:14.831Z,10.80
2022-11-07T19:33:43.292Z,10.70
2022-11-07T19:36:17.972Z,10.70
2022-11-07T19:38:46.003Z,10.70
2022-11-07T19:41:16.038Z,10.60
2022-11-07T19:43:48.359Z,10.70
2022-11-07T19:46:22.337Z,10.60
2022-11-07T19:48:50.643Z,10.60
2022-11-07T19:51:22.570Z,10.70
2022-11-07T19:53:58.952Z,10.60
2022-11-07T19:56:30.381Z,10.70
2022-11-07T19:58:59.351Z,10.60
2022-11-07T20:01:32.738Z,10.70
2022-11-07T20:04:02.637Z,10.70
2022-11-07T20:06:36.583Z,10.70
2022-11-07T20:09:07.790Z,10.70
2022-11-07T20:11:35.423Z,10.70
2022-11-07T20:14:04.005Z,10.80
2022-11-07T20:16:37.175Z,10.80
2022-11-07T20:19:04.841Z,10.80
2022-11-07T20:21:34.353Z,10.80
2022-11-07T20:24:02.238Z,10.70
2022-11-07T20:26:31.127Z,10.70
2022-11-07T20:28:59.373Z,10.70
2022-11-07T20:31:34.526Z,10.70
2022-11-07T20:34:05.422Z,10.70
2022-11-07T20:36:33.894Z,10.60
2022-11-07T20:39:02.490Z,10.60
2022-11-07T20:41:29.790Z,10.60
2022-11-07T20:44:03.884Z,10.60
2022-11-07T20:46:38.012Z,10.60
2022-11-07T20:49:09.105Z,10.60
2022-11-07T20:51:42.476Z,10.60
2022-11-07T20:54:15.562Z,10.50
2022-11-07T20:56:45.636Z,10.50
2022-11-07T20:59:12.726Z,10.50
2022-11-07T21:01:40.049Z,10.40
2022-11-07T21:04:14.320Z,10.40
2022-11-07T21:06:41.770Z,10.40
2022-11-07T21:09:12.620Z,10.50
2022-11-07T21:11:40.211Z,10.40
2022-11-07T21:14:07.269Z,10.40
2022-11-07T21:16:36.988Z,10.40
2022-11-07T21:19:05.389Z,10.40
2022-11-07T21:21:33.767Z,10.40
2022-11-07T21:24:01.145Z,10.40
2022-11-07T21:26:35.959Z,10.40
2022-11-07T21:29:06.593Z,10.40
2022-11-07T21:31:36.090Z,10.40
2022-11-07T21:34:03.242Z,10.40
2022-11-07T21:36:31.587Z,10.40
2022-11-07T21:39:00.942Z,10.40
2022-11-07T21:41:30.066Z,10.30
2022-11-07T21:43:58.684Z,10.30
2022-11-07T21:46:30.373Z,10.30
2022-11-07T21:48:59.024Z,10.30
2022-11-07T21:51:30.562Z,10.30
2022-11-07T21:54:00.024Z,10.30
2022-11-07T21:56:35.152Z,10.30
2022-11-07T21:59:11.575Z,10.30
2022-11-07T22:01:40.090Z,10.30
2022-11-07T22:04:12.947Z,10.30
2022-11-07T22:06:45.985Z,10.40
2022-11-07T22:09:20.626Z,10.40
2022-11-07T22:11:51.197Z,10.50
2022-11-07T22:14:22.072Z,10.50
2022-11-07T22:16:50.904Z,10.50
2022-11-07T22:19:18.960Z,10.60
2022-11-07T22:21:46.149Z,10.60
2022-11-07T22:24:13.122Z,10.60
2022-11-07T22:26:40.409Z,10.60
2022-11-07T22:29:07.887Z,10.60
2022-11-07T22:31:35.104Z,10.70
2022-11-07T22:34:02.334Z,10.60
2022-11-07T22:36:29.943Z,10.70
2022-11-07T22:38:58.517Z,10.70
2022-11-07T22:41:27.305Z,10.60
2022-11-07T22:43:55.081Z,10.60
2022-11-07T22:46:26.816Z,10.70
2022-11-07T22:48:54.759Z,10.70
2022-11-07T22:51:25.949Z,10.60
2022-11-07T22:54:07.602Z,10.60
2022-11-07T22:56:36.427Z,10.60
2022-11-07T22:59:05.530Z,10.60
2022-11-07T23:01:37.145Z,10.60
2022-11-07T23:04:05.161Z,10.50
2022-11-07T23:06:32.751Z,10.40
2022-11-07T23:09:01.053Z,10.50
2022-11-07T23:11:45.997Z,10.50
2022-11-07T23:14:16.304Z,10.40
2022-11-07T23:16:50.324Z,10.40
2022-11-07T23:19:21.669Z,10.40
2022-11-07T23:21:50.853Z,10.40
2022-11-07T23:24:18.472Z,10.30
2022-11-07T23:26:45.544Z,10.40
2022-11-07T23:29:23.874Z,10.40
2022-11-07T23:31:52.353Z,10.40
2022-11-07T23:34:21.451Z,10.40
2022-11-07T23:36:51.247Z,10.40
2022-11-07T23:39:21.895Z,10.40
2022-11-07T23:41:48.941Z,10.50
2022-11-07T23:44:16.068Z,10.50
2022-11-07T23:47:03.063Z,10.50
2022-11-07T23:49:48.917Z,10.50
2022-11-07T23:52:16.986Z,10.50
2022-11-07T23:55:02.321Z,10.50
2022-11-07T23:57:29.281Z,10.50
